Terminal Aerodrome Forecast
Issued by NWS

Home | Current Version | Previous Version | Graphics & Text | Print | Product List | Glossary On
Versions: 1 2 3 4 5 6 7 8 9 10 11 12 13 14 15 16 17 18
783
FTUS43 KMPX 050520
TAFAXN
TAF
KAXN 050520Z 0506/0606 23006KT P6SM SCT025 SCT200
     FM050900 18008KT 6SM BR BKN150
     FM051500 14012G20KT P6SM OVC100
     FM051800 14012G18KT P6SM OVC050
     FM060100 24017G25KT P6SM VCSH BKN025 OVC050=

USA.gov is the U.S. government's official web portal to all federal, state and local government web resources and services.